sensor_id;sensor_type;location;lat;lon;timestamp;pressure;altitude;pressure_sealevel;temperature;humidity
34925;BME280;21130;51.728;8.748;2023-04-30T00:00:47;101108.34;;;3.14;100.00
34925;BME280;21130;51.728;8.748;2023-04-30T00:03:14;101103.41;;;3.09;100.00
34925;BME280;21130;51.728;8.748;2023-04-30T00:05:40;101104.78;;;3.05;100.00
34925;BME280;21130;51.728;8.748;2023-04-30T00:08:06;101105.16;;;3.02;100.00
34925;BME280;21130;51.728;8.748;2023-04-30T00:10:33;101109.66;;;2.95;100.00
34925;BME280;21130;51.728;8.748;2023-04-30T00:13:01;101111.03;;;2.91;100.00
34925;BME280;21130;51.728;8.748;2023-04-30T00:15:27;101106.91;;;2.95;100.00
34925;BME280;21130;51.728;8.748;2023-04-30T00:17:53;101107.59;;;2.97;100.00
34925;BME280;21130;51.728;8.748;2023-04-30T00:20:20;101110.03;;;2.92;100.00
34925;BME280;21130;51.728;8.748;2023-04-30T00:22:52;101104.38;;;2.85;100.00
34925;BME280;21130;51.728;8.748;2023-04-30T00:25:18;101107.66;;;2.80;100.00
34925;BME280;21130;51.728;8.748;2023-04-30T00:27:45;101106.13;;;2.78;100.00
34925;BME280;21130;51.728;8.748;2023-04-30T00:30:13;101102.06;;;2.74;100.00
34925;BME280;21130;51.728;8.748;2023-04-30T00:32:39;101107.72;;;2.72;100.00
34925;BME280;21130;51.728;8.748;2023-04-30T00:35:06;101101.91;;;2.67;100.00
34925;BME280;21130;51.728;8.748;2023-04-30T00:37:32;101107.88;;;2.71;100.00
34925;BME280;21130;51.728;8.748;2023-04-30T00:39:59;101112.03;;;2.67;100.00
34925;BME280;21130;51.728;8.748;2023-04-30T00:42:25;101108.25;;;2.68;100.00
34925;BME280;21130;51.728;8.748;2023-04-30T00:44:51;101114.44;;;2.62;100.00
34925;BME280;21130;51.728;8.748;2023-04-30T00:47:19;101117.72;;;2.57;100.00
34925;BME280;21130;51.728;8.748;2023-04-30T00:49:46;101115.50;;;2.52;100.00
34925;BME280;21130;51.728;8.748;2023-04-30T00:52:13;101120.84;;;2.46;100.00
34925;BME280;21130;51.728;8.748;2023-04-30T00:54:39;101122.91;;;2.44;100.00
34925;BME280;21130;51.728;8.748;2023-04-30T00:57:08;101117.75;;;2.41;100.00
34925;BME280;21130;51.728;8.748;2023-04-30T00:59:37;101127.38;;;2.36;100.00
34925;BME280;21130;51.728;8.748;2023-04-30T01:02:04;101128.06;;;2.30;100.00
34925;BME280;21130;51.728;8.748;2023-04-30T01:04:32;101126.38;;;2.29;100.00
34925;BME280;21130;51.728;8.748;2023-04-30T01:06:59;101136.84;;;2.26;100.00
34925;BME280;21130;51.728;8.748;2023-04-30T01:09:26;101138.69;;;2.25;100.00
34925;BME280;21130;51.728;8.748;2023-04-30T01:11:59;101138.91;;;2.24;100.00
34925;BME280;21130;51.728;8.748;2023-04-30T01:14:31;101143.84;;;2.20;100.00
34925;BME280;21130;51.728;8.748;2023-04-30T01:17:02;101137.88;;;2.16;100.00
34925;BME280;21130;51.728;8.748;2023-04-30T01:19:39;101138.03;;;2.15;100.00
34925;BME280;21130;51.728;8.748;2023-04-30T01:22:11;101136.69;;;2.11;100.00
34925;BME280;21130;51.728;8.748;2023-04-30T01:24:48;101141.16;;;2.04;100.00
34925;BME280;21130;51.728;8.748;2023-04-30T01:27:29;101140.81;;;1.99;100.00
34925;BME280;21130;51.728;8.748;2023-04-30T01:30:00;101136.72;;;1.94;100.00
34925;BME280;21130;51.728;8.748;2023-04-30T01:32:27;101138.06;;;1.90;100.00
34925;BME280;21130;51.728;8.748;2023-04-30T01:34:53;101141.00;;;1.89;100.00
34925;BME280;21130;51.728;8.748;2023-04-30T01:37:23;101147.84;;;1.85;100.00
34925;BME280;21130;51.728;8.748;2023-04-30T01:40:02;101149.72;;;1.84;100.00
34925;BME280;21130;51.728;8.748;2023-04-30T01:42:40;101148.19;;;1.82;100.00
34925;BME280;21130;51.728;8.748;2023-04-30T01:45:31;101146.66;;;1.79;100.00
34925;BME280;21130;51.728;8.748;2023-04-30T01:48:07;101149.53;;;1.78;100.00
34925;BME280;21130;51.728;8.748;2023-04-30T01:50:47;101148.91;;;1.76;100.00
34925;BME280;21130;51.728;8.748;2023-04-30T01:53:17;101150.59;;;1.77;100.00
34925;BME280;21130;51.728;8.748;2023-04-30T01:55:49;101138.25;;;1.72;100.00
34925;BME280;21130;51.728;8.748;2023-04-30T01:58:16;101151.44;;;1.69;100.00
34925;BME280;21130;51.728;8.748;2023-04-30T02:00:46;101148.38;;;1.64;100.00
34925;BME280;21130;51.728;8.748;2023-04-30T02:03:12;101160.31;;;1.63;100.00
34925;BME280;21130;51.728;8.748;2023-04-30T02:05:38;101155.19;;;1.60;100.00
34925;BME280;21130;51.728;8.748;2023-04-30T02:08:05;101158.28;;;1.57;100.00
34925;BME280;21130;51.728;8.748;2023-04-30T02:10:32;101152.47;;;1.51;100.00
34925;BME280;21130;51.728;8.748;2023-04-30T02:12:59;101163.75;;;1.48;100.00
34925;BME280;21130;51.728;8.748;2023-04-30T02:15:25;101163.06;;;1.46;100.00
34925;BME280;21130;51.728;8.748;2023-04-30T02:17:53;101154.50;;;1.41;100.00
34925;BME280;21130;51.728;8.748;2023-04-30T02:20:19;101162.03;;;1.39;100.00
34925;BME280;21130;51.728;8.748;2023-04-30T02:22:46;101162.03;;;1.39;100.00
34925;BME280;21130;51.728;8.748;2023-04-30T02:25:12;101163.22;;;1.37;100.00
34925;BME280;21130;51.728;8.748;2023-04-30T02:27:39;101161.69;;;1.34;100.00
34925;BME280;21130;51.728;8.748;2023-04-30T02:30:06;101166.44;;;1.32;100.00
34925;BME280;21130;51.728;8.748;2023-04-30T02:32:32;101157.25;;;1.33;100.00
34925;BME280;21130;51.728;8.748;2023-04-30T02:35:00;101165.59;;;1.32;100.00
34925;BME280;21130;51.728;8.748;2023-04-30T02:37:27;101166.78;;;1.29;100.00
34925;BME280;21130;51.728;8.748;2023-04-30T02:39:53;101156.00;;;1.27;100.00
34925;BME280;21130;51.728;8.748;2023-04-30T02:42:20;101168.84;;;1.27;100.00
34925;BME280;21130;51.728;8.748;2023-04-30T02:44:46;101162.66;;;1.25;100.00
34925;BME280;21130;51.728;8.748;2023-04-30T02:47:12;101160.47;;;1.28;100.00
34925;BME280;21130;51.728;8.748;2023-04-30T02:49:39;101167.16;;;1.34;100.00
34925;BME280;21130;51.728;8.748;2023-04-30T02:52:07;101164.25;;;1.36;100.00
34925;BME280;21130;51.728;8.748;2023-04-30T02:54:34;101164.59;;;1.41;100.00
34925;BME280;21130;51.728;8.748;2023-04-30T02:57:00;101167.69;;;1.46;100.00
34925;BME280;21130;51.728;8.748;2023-04-30T02:59:27;101170.91;;;1.49;100.00
34925;BME280;21130;51.728;8.748;2023-04-30T03:01:53;101165.97;;;1.53;100.00
34925;BME280;21130;51.728;8.748;2023-04-30T03:04:19;101175.72;;;1.56;100.00
34925;BME280;21130;51.728;8.748;2023-04-30T03:06:46;101173.00;;;1.56;100.00
34925;BME280;21130;51.728;8.748;2023-04-30T03:09:14;101173.31;;;1.52;100.00
34925;BME280;21130;51.728;8.748;2023-04-30T03:11:40;101183.75;;;1.49;100.00
34925;BME280;21130;51.728;8.748;2023-04-30T03:14:06;101178.94;;;1.43;100.00
34925;BME280;21130;51.728;8.748;2023-04-30T03:16:51;101178.78;;;1.36;100.00
34925;BME280;21130;51.728;8.748;2023-04-30T03:19:36;101182.84;;;1.32;100.00
34925;BME280;21130;51.728;8.748;2023-04-30T03:22:09;101183.53;;;1.26;100.00
34925;BME280;21130;51.728;8.748;2023-04-30T03:24:37;101182.16;;;1.22;100.00
34925;BME280;21130;51.728;8.748;2023-04-30T03:27:03;101185.38;;;1.17;100.00
34925;BME280;21130;51.728;8.748;2023-04-30T03:29:30;101193.22;;;1.12;100.00
34925;BME280;21130;51.728;8.748;2023-04-30T03:31:56;101192.38;;;1.12;100.00
34925;BME280;21130;51.728;8.748;2023-04-30T03:34:22;101184.88;;;1.14;100.00
34925;BME280;21130;51.728;8.748;2023-04-30T03:36:49;101193.06;;;1.14;100.00
34925;BME280;21130;51.728;8.748;2023-04-30T03:39:15;101185.38;;;1.17;100.00
34925;BME280;21130;51.728;8.748;2023-04-30T03:41:43;101200.09;;;1.16;100.00
34925;BME280;21130;51.728;8.748;2023-04-30T03:44:09;101206.06;;;1.20;100.00
34925;BME280;21130;51.728;8.748;2023-04-30T03:46:39;101200.59;;;1.20;100.00
34925;BME280;21130;51.728;8.748;2023-04-30T03:49:06;101205.72;;;1.23;100.00
34925;BME280;21130;51.728;8.748;2023-04-30T03:51:32;101193.63;;;1.25;100.00
34925;BME280;21130;51.728;8.748;2023-04-30T03:54:03;101198.56;;;1.30;100.00
34925;BME280;21130;51.728;8.748;2023-04-30T03:56:30;101193.97;;;1.31;100.00
34925;BME280;21130;51.728;8.748;2023-04-30T03:58:58;101199.09;;;1.34;100.00
34925;BME280;21130;51.728;8.748;2023-04-30T04:01:25;101201.16;;;1.32;100.00
34925;BME280;21130;51.728;8.748;2023-04-30T04:03:52;101204.38;;;1.27;100.00
34925;BME280;21130;51.728;8.748;2023-04-30T04:06:19;101200.94;;;1.25;100.00
34925;BME280;21130;51.728;8.748;2023-04-30T04:08:45;101202.47;;;1.19;100.00
34925;BME280;21130;51.728;8.748;2023-04-30T04:11:12;101201.28;;;1.14;100.00
34925;BME280;21130;51.728;8.748;2023-04-30T04:13:38;101196.81;;;1.13;100.00
34925;BME280;21130;51.728;8.748;2023-04-30T04:16:06;101199.03;;;1.09;100.00
34925;BME280;21130;51.728;8.748;2023-04-30T04:18:33;101197.66;;;1.05;100.00
34925;BME280;21130;51.728;8.748;2023-04-30T04:21:02;101216.13;;;1.03;100.00
34925;BME280;21130;51.728;8.748;2023-04-30T04:23:29;101211.84;;;1.08;100.00
34925;BME280;21130;51.728;8.748;2023-04-30T04:25:56;101213.19;;;1.04;100.00
34925;BME280;21130;51.728;8.748;2023-04-30T04:28:22;101206.38;;;1.00;100.00
34925;BME280;21130;51.728;8.748;2023-04-30T04:30:49;101204.63;;;0.99;100.00
34925;BME280;21130;51.728;8.748;2023-04-30T04:33:17;101197.63;;;0.97;100.00
34925;BME280;21130;51.728;8.748;2023-04-30T04:35:44;101197.78;;;0.95;100.00
34925;BME280;21130;51.728;8.748;2023-04-30T04:38:11;101197.47;;;0.98;100.00
34925;BME280;21130;51.728;8.748;2023-04-30T04:40:38;101202.75;;;1.00;100.00
34925;BME280;21130;51.728;8.748;2023-04-30T04:43:04;101207.91;;;1.03;100.00
34925;BME280;21130;51.728;8.748;2023-04-30T04:45:31;101210.13;;;1.07;100.00
34925;BME280;21130;51.728;8.748;2023-04-30T04:47:58;101207.94;;;1.11;100.00
34925;BME280;21130;51.728;8.748;2023-04-30T04:50:25;101199.25;;;1.16;100.00
34925;BME280;21130;51.728;8.748;2023-04-30T04:52:52;101200.09;;;1.24;100.00
34925;BME280;21130;51.728;8.748;2023-04-30T04:55:18;101198.75;;;1.28;100.00
34925;BME280;21130;51.728;8.748;2023-04-30T04:57:45;101204.38;;;1.35;100.00
34925;BME280;21130;51.728;8.748;2023-04-30T05:00:12;101203.06;;;1.47;100.00
34925;BME280;21130;51.728;8.748;2023-04-30T05:02:38;101213.84;;;1.57;100.00
34925;BME280;21130;51.728;8.748;2023-04-30T05:05:05;101211.81;;;1.67;100.00
34925;BME280;21130;51.728;8.748;2023-04-30T05:07:33;101211.84;;;1.76;100.00
34925;BME280;21130;51.728;8.748;2023-04-30T05:10:00;101206.69;;;1.81;100.00
34925;BME280;21130;51.728;8.748;2023-04-30T05:12:26;101214.72;;;1.90;100.00
34925;BME280;21130;51.728;8.748;2023-04-30T05:14:52;101207.88;;;2.03;100.00
34925;BME280;21130;51.728;8.748;2023-04-30T05:17:19;101201.56;;;2.19;100.00
34925;BME280;21130;51.728;8.748;2023-04-30T05:19:45;101205.66;;;2.31;100.00
34925;BME280;21130;51.728;8.748;2023-04-30T05:22:15;101211.44;;;2.44;100.00
34925;BME280;21130;51.728;8.748;2023-04-30T05:24:42;101206.63;;;2.54;100.00
34925;BME280;21130;51.728;8.748;2023-04-30T05:27:09;101211.19;;;2.70;100.00
34925;BME280;21130;51.728;8.748;2023-04-30T05:29:35;101209.72;;;2.91;100.00
34925;BME280;21130;51.728;8.748;2023-04-30T05:32:02;101213.41;;;3.14;100.00
34925;BME280;21130;51.728;8.748;2023-04-30T05:34:28;101218.63;;;3.32;100.00
34925;BME280;21130;51.728;8.748;2023-04-30T05:36:55;101224.34;;;3.54;100.00
34925;BME280;21130;51.728;8.748;2023-04-30T05:39:21;101218.38;;;3.73;100.00
34925;BME280;21130;51.728;8.748;2023-04-30T05:41:49;101222.69;;;3.90;100.00
34925;BME280;21130;51.728;8.748;2023-04-30T05:44:15;101220.75;;;3.99;100.00
34925;BME280;21130;51.728;8.748;2023-04-30T05:46:42;101226.91;;;4.24;100.00
34925;BME280;21130;51.728;8.748;2023-04-30T05:49:08;101223.44;;;4.45;100.00
34925;BME280;21130;51.728;8.748;2023-04-30T05:51:35;101228.47;;;4.57;100.00
34925;BME280;21130;51.728;8.748;2023-04-30T05:54:01;101224.13;;;4.77;100.00
34925;BME280;21130;51.728;8.748;2023-04-30T05:56:28;101225.06;;;4.99;100.00
34925;BME280;21130;51.728;8.748;2023-04-30T05:58:56;101222.28;;;5.14;100.00
34925;BME280;21130;51.728;8.748;2023-04-30T06:01:23;101222.94;;;5.31;100.00
34925;BME280;21130;51.728;8.748;2023-04-30T06:03:52;101217.88;;;5.49;100.00
34925;BME280;21130;51.728;8.748;2023-04-30T06:06:19;101212.28;;;5.64;100.00
34925;BME280;21130;51.728;8.748;2023-04-30T06:08:45;101202.72;;;5.81;100.00
34925;BME280;21130;51.728;8.748;2023-04-30T06:11:12;101204.50;;;5.89;100.00
34925;BME280;21130;51.728;8.748;2023-04-30T06:13:39;101200.88;;;6.03;100.00
34925;BME280;21130;51.728;8.748;2023-04-30T06:16:07;101192.53;;;6.18;100.00
34925;BME280;21130;51.728;8.748;2023-04-30T06:18:34;101189.59;;;6.26;100.00
34925;BME280;21130;51.728;8.748;2023-04-30T06:21:00;101194.53;;;6.31;100.00
34925;BME280;21130;51.728;8.748;2023-04-30T06:23:27;101201.03;;;6.52;100.00
34925;BME280;21130;51.728;8.748;2023-04-30T06:25:53;101204.69;;;6.59;100.00
34925;BME280;21130;51.728;8.748;2023-04-30T06:28:20;101203.56;;;6.75;100.00
34925;BME280;21130;51.728;8.748;2023-04-30T06:30:46;101202.56;;;6.89;100.00
34925;BME280;21130;51.728;8.748;2023-04-30T06:33:14;101206.03;;;7.04;100.00
34925;BME280;21130;51.728;8.748;2023-04-30T06:35:40;101204.19;;;7.18;100.00
34925;BME280;21130;51.728;8.748;2023-04-30T06:38:07;101203.81;;;7.34;100.00
34925;BME280;21130;51.728;8.748;2023-04-30T06:40:33;101209.00;;;7.51;100.00
34925;BME280;21130;51.728;8.748;2023-04-30T06:43:00;101207.31;;;7.56;100.00
34925;BME280;21130;51.728;8.748;2023-04-30T06:45:26;101206.03;;;7.59;100.00
34925;BME280;21130;51.728;8.748;2023-04-30T06:47:53;101200.56;;;7.79;100.00
34925;BME280;21130;51.728;8.748;2023-04-30T06:50:21;101203.34;;;7.92;100.00
34925;BME280;21130;51.728;8.748;2023-04-30T06:52:47;101205.94;;;8.00;100.00
34925;BME280;21130;51.728;8.748;2023-04-30T06:55:14;101209.09;;;8.04;100.00
34925;BME280;21130;51.728;8.748;2023-04-30T06:57:40;101206.34;;;8.24;100.00
34925;BME280;21130;51.728;8.748;2023-04-30T07:00:07;101205.72;;;8.35;100.00
34925;BME280;21130;51.728;8.748;2023-04-30T07:02:34;101195.97;;;8.53;100.00
34925;BME280;21130;51.728;8.748;2023-04-30T07:05:01;101205.94;;;8.74;100.00
34925;BME280;21130;51.728;8.748;2023-04-30T07:07:29;101202.28;;;8.80;100.00
34925;BME280;21130;51.728;8.748;2023-04-30T07:09:56;101198.19;;;9.02;100.00
34925;BME280;21130;51.728;8.748;2023-04-30T07:12:22;101202.59;;;9.23;100.00
34925;BME280;21130;51.728;8.748;2023-04-30T07:14:49;101195.06;;;9.37;100.00
34925;BME280;21130;51.728;8.748;2023-04-30T07:17:15;101200.03;;;9.28;100.00
34925;BME280;21130;51.728;8.748;2023-04-30T07:19:42;101199.94;;;9.42;100.00
34925;BME280;21130;51.728;8.748;2023-04-30T07:22:08;101195.69;;;9.46;100.00
34925;BME280;21130;51.728;8.748;2023-04-30T07:24:36;101199.22;;;9.60;100.00
34925;BME280;21130;51.728;8.748;2023-04-30T07:27:03;101196.31;;;9.86;100.00
34925;BME280;21130;51.728;8.748;2023-04-30T07:29:31;101193.44;;;10.00;100.00
34925;BME280;21130;51.728;8.748;2023-04-30T07:31:58;101189.69;;;10.12;100.00
34925;BME280;21130;51.728;8.748;2023-04-30T07:34:24;101196.84;;;10.33;100.00
34925;BME280;21130;51.728;8.748;2023-04-30T07:36:52;101192.59;;;10.24;100.00
34925;BME280;21130;51.728;8.748;2023-04-30T07:39:18;101196.25;;;10.50;100.00
34925;BME280;21130;51.728;8.748;2023-04-30T07:41:46;101195.59;;;10.73;100.00
34925;BME280;21130;51.728;8.748;2023-04-30T07:44:12;101196.78;;;10.84;100.00
34925;BME280;21130;51.728;8.748;2023-04-30T07:46:38;101198.94;;;10.81;100.00
34925;BME280;21130;51.728;8.748;2023-04-30T07:49:05;101191.44;;;11.00;100.00
34925;BME280;21130;51.728;8.748;2023-04-30T07:51:31;101191.47;;;11.19;100.00
34925;BME280;21130;51.728;8.748;2023-04-30T07:53:58;101197.00;;;11.37;100.00
34925;BME280;21130;51.728;8.748;2023-04-30T07:56:25;101195.91;;;11.38;100.00
34925;BME280;21130;51.728;8.748;2023-04-30T07:58:53;101191.16;;;11.27;100.00
34925;BME280;21130;51.728;8.748;2023-04-30T08:01:19;101200.69;;;11.50;100.00
34925;BME280;21130;51.728;8.748;2023-04-30T08:03:46;101203.75;;;11.60;100.00
34925;BME280;21130;51.728;8.748;2023-04-30T08:06:12;101196.22;;;11.49;100.00
34925;BME280;21130;51.728;8.748;2023-04-30T08:08:39;101201.56;;;11.80;100.00
34925;BME280;21130;51.728;8.748;2023-04-30T08:11:06;101199.75;;;11.86;100.00
34925;BME280;21130;51.728;8.748;2023-04-30T08:13:32;101202.78;;;11.84;100.00
34925;BME280;21130;51.728;8.748;2023-04-30T08:16:00;101193.66;;;11.96;100.00
34925;BME280;21130;51.728;8.748;2023-04-30T08:18:26;101202.59;;;11.98;100.00
34925;BME280;21130;51.728;8.748;2023-04-30T08:20:52;101189.09;;;12.13;100.00
34925;BME280;21130;51.728;8.748;2023-04-30T08:23:19;101200.97;;;12.20;100.00
34925;BME280;21130;51.728;8.748;2023-04-30T08:25:45;101203.06;;;12.48;100.00
34925;BME280;21130;51.728;8.748;2023-04-30T08:28:12;101196.06;;;12.58;100.00
34925;BME280;21130;51.728;8.748;2023-04-30T08:30:38;101195.72;;;12.54;100.00
34925;BME280;21130;51.728;8.748;2023-04-30T08:33:06;101195.19;;;12.22;100.00
34925;BME280;21130;51.728;8.748;2023-04-30T08:35:33;101193.84;;;12.36;100.00
34925;BME280;21130;51.728;8.748;2023-04-30T08:37:59;101197.50;;;12.37;100.00
34925;BME280;21130;51.728;8.748;2023-04-30T08:40:26;101194.50;;;12.85;100.00
34925;BME280;21130;51.728;8.748;2023-04-30T08:42:59;101198.44;;;13.25;100.00
34925;BME280;21130;51.728;8.748;2023-04-30T08:45:30;101195.78;;;13.30;97.58
34925;BME280;21130;51.728;8.748;2023-04-30T08:47:58;101192.25;;;13.75;93.07
34925;BME280;21130;51.728;8.748;2023-04-30T08:50:26;101188.16;;;13.66;94.63
34925;BME280;21130;51.728;8.748;2023-04-30T08:52:53;101193.63;;;13.60;98.37
34925;BME280;21130;51.728;8.748;2023-04-30T08:55:19;101191.94;;;13.59;99.59
34925;BME280;21130;51.728;8.748;2023-04-30T08:57:46;101188.09;;;14.23;93.29
34925;BME280;21130;51.728;8.748;2023-04-30T09:00:13;101183.03;;;14.54;84.47
34925;BME280;21130;51.728;8.748;2023-04-30T09:02:40;101177.78;;;14.74;83.67
34925;BME280;21130;51.728;8.748;2023-04-30T09:05:10;101179.84;;;15.45;77.05
34925;BME280;21130;51.728;8.748;2023-04-30T09:07:39;101181.97;;;15.60;75.78
34925;BME280;21130;51.728;8.748;2023-04-30T09:10:13;101183.09;;;15.81;68.81
34925;BME280;21130;51.728;8.748;2023-04-30T09:12:40;101176.34;;;16.36;63.36
34925;BME280;21130;51.728;8.748;2023-04-30T09:15:10;101184.16;;;17.03;62.63
34925;BME280;21130;51.728;8.748;2023-04-30T09:17:37;101184.38;;;16.97;59.50
34925;BME280;21130;51.728;8.748;2023-04-30T09:20:08;101182.31;;;16.82;55.92
34925;BME280;21130;51.728;8.748;2023-04-30T09:22:35;101184.72;;;17.68;55.79
34925;BME280;21130;51.728;8.748;2023-04-30T09:25:05;101185.31;;;17.13;58.51
34925;BME280;21130;51.728;8.748;2023-04-30T09:27:31;101181.56;;;17.55;53.75
34925;BME280;21130;51.728;8.748;2023-04-30T09:29:58;101178.72;;;17.44;54.05
34925;BME280;21130;51.728;8.748;2023-04-30T09:32:25;101178.13;;;17.32;54.87
34925;BME280;21130;51.728;8.748;2023-04-30T09:34:51;101176.28;;;17.00;53.56
34925;BME280;21130;51.728;8.748;2023-04-30T09:37:17;101169.94;;;17.88;53.18
34925;BME280;21130;51.728;8.748;2023-04-30T09:39:48;101166.00;;;18.30;53.29
34925;BME280;21130;51.728;8.748;2023-04-30T09:42:17;101166.56;;;18.48;49.91
34925;BME280;21130;51.728;8.748;2023-04-30T09:44:57;101165.19;;;18.30;51.37
34925;BME280;21130;51.728;8.748;2023-04-30T09:47:28;101162.09;;;18.77;53.51
34925;BME280;21130;51.728;8.748;2023-04-30T09:49:55;101166.78;;;17.06;50.30
34925;BME280;21130;51.728;8.748;2023-04-30T09:52:21;101159.41;;;17.48;52.79
34925;BME280;21130;51.728;8.748;2023-04-30T09:54:48;101159.53;;;18.71;54.50
34925;BME280;21130;51.728;8.748;2023-04-30T09:57:16;101159.75;;;19.10;52.57
34925;BME280;21130;51.728;8.748;2023-04-30T09:59:47;101155.78;;;19.21;51.14
34925;BME280;21130;51.728;8.748;2023-04-30T10:02:15;101150.75;;;19.03;48.23
34925;BME280;21130;51.728;8.748;2023-04-30T10:04:44;101144.72;;;19.95;45.82
34925;BME280;21130;51.728;8.748;2023-04-30T10:07:11;101147.66;;;19.75;44.20
34925;BME280;21130;51.728;8.748;2023-04-30T10:09:48;101146.00;;;19.74;45.38
34925;BME280;21130;51.728;8.748;2023-04-30T10:12:20;101150.94;;;19.32;46.46
34925;BME280;21130;51.728;8.748;2023-04-30T10:14:51;101142.69;;;19.56;45.47
34925;BME280;21130;51.728;8.748;2023-04-30T10:17:21;101145.19;;;20.07;44.10
34925;BME280;21130;51.728;8.748;2023-04-30T10:19:51;101142.38;;;20.07;45.10
34925;BME280;21130;51.728;8.748;2023-04-30T10:22:20;101136.75;;;19.58;44.46
34925;BME280;21130;51.728;8.748;2023-04-30T10:24:47;101129.75;;;18.80;43.75
34925;BME280;21130;51.728;8.748;2023-04-30T10:27:14;101126.63;;;18.92;44.50
34925;BME280;21130;51.728;8.748;2023-04-30T10:29:42;101130.03;;;18.58;45.83
34925;BME280;21130;51.728;8.748;2023-04-30T10:32:10;101130.59;;;18.55;48.14
34925;BME280;21130;51.728;8.748;2023-04-30T10:34:45;101121.63;;;18.32;47.18
34925;BME280;21130;51.728;8.748;2023-04-30T10:37:19;101125.56;;;18.21;47.75
34925;BME280;21130;51.728;8.748;2023-04-30T10:39:47;101119.38;;;18.34;47.92
34925;BME280;21130;51.728;8.748;2023-04-30T10:42:14;101124.44;;;18.38;48.78
34925;BME280;21130;51.728;8.748;2023-04-30T10:44:42;101115.75;;;18.19;50.20
34925;BME280;21130;51.728;8.748;2023-04-30T10:47:09;101117.88;;;18.93;47.68
34925;BME280;21130;51.728;8.748;2023-04-30T10:49:35;101102.25;;;18.26;48.14
34925;BME280;21130;51.728;8.748;2023-04-30T10:52:03;101107.28;;;18.44;49.02
34925;BME280;21130;51.728;8.748;2023-04-30T10:54:31;101096.34;;;19.33;48.33
34925;BME280;21130;51.728;8.748;2023-04-30T10:57:09;101088.50;;;19.25;45.67
34925;BME280;21130;51.728;8.748;2023-04-30T10:59:36;101099.34;;;19.52;45.13
34925;BME280;21130;51.728;8.748;2023-04-30T11:02:04;101097.84;;;19.10;45.38
34925;BME280;21130;51.728;8.748;2023-04-30T11:04:31;101096.94;;;19.25;45.84
34925;BME280;21130;51.728;8.748;2023-04-30T11:07:07;101083.00;;;18.94;44.17
34925;BME280;21130;51.728;8.748;2023-04-30T11:09:37;101084.69;;;19.50;46.94
34925;BME280;21130;51.728;8.748;2023-04-30T11:12:10;101080.78;;;19.91;45.48
34925;BME280;21130;51.728;8.748;2023-04-30T11:14:39;101075.28;;;19.75;44.20
34925;BME280;21130;51.728;8.748;2023-04-30T11:17:08;101078.41;;;19.74;44.54
34925;BME280;21130;51.728;8.748;2023-04-30T11:19:35;101067.59;;;18.82;44.77
34925;BME280;21130;51.728;8.748;2023-04-30T11:22:21;101072.38;;;18.86;47.34
34925;BME280;21130;51.728;8.748;2023-04-30T11:24:52;101062.56;;;19.33;46.52
34925;BME280;21130;51.728;8.748;2023-04-30T11:27:20;101059.72;;;18.84;44.87
34925;BME280;21130;51.728;8.748;2023-04-30T11:29:48;101065.97;;;19.30;45.88
34925;BME280;21130;51.728;8.748;2023-04-30T11:32:16;101065.69;;;19.32;45.49
34925;BME280;21130;51.728;8.748;2023-04-30T11:34:43;101060.84;;;19.37;45.95
34925;BME280;21130;51.728;8.748;2023-04-30T11:37:11;101054.69;;;19.80;43.27
34925;BME280;21130;51.728;8.748;2023-04-30T11:39:39;101053.59;;;19.76;43.16
34925;BME280;21130;51.728;8.748;2023-04-30T11:42:07;101058.28;;;20.20;39.67
34925;BME280;21130;51.728;8.748;2023-04-30T11:44:33;101051.19;;;20.57;41.46
34925;BME280;21130;51.728;8.748;2023-04-30T11:47:00;101059.03;;;20.31;41.37
34925;BME280;21130;51.728;8.748;2023-04-30T11:49:27;101045.41;;;20.91;39.20
34925;BME280;21130;51.728;8.748;2023-04-30T11:51:55;101045.94;;;20.69;41.25
34925;BME280;21130;51.728;8.748;2023-04-30T11:54:21;101042.72;;;21.24;40.22
34925;BME280;21130;51.728;8.748;2023-04-30T11:56:48;101039.47;;;20.92;39.69
34925;BME280;21130;51.728;8.748;2023-04-30T11:59:15;101037.50;;;21.55;39.47
34925;BME280;21130;51.728;8.748;2023-04-30T12:01:42;101034.28;;;21.81;38.25
34925;BME280;21130;51.728;8.748;2023-04-30T12:04:09;101031.97;;;20.83;38.64
34925;BME280;21130;51.728;8.748;2023-04-30T12:06:37;101033.00;;;21.11;40.55
34925;BME280;21130;51.728;8.748;2023-04-30T12:09:06;101024.00;;;21.09;41.05
34925;BME280;21130;51.728;8.748;2023-04-30T12:11:34;101015.47;;;21.14;39.10
34925;BME280;21130;51.728;8.748;2023-04-30T12:14:02;101008.94;;;21.38;39.83
34925;BME280;21130;51.728;8.748;2023-04-30T12:16:38;101006.53;;;21.50;38.32
34925;BME280;21130;51.728;8.748;2023-04-30T12:19:05;101018.63;;;21.69;39.00
34925;BME280;21130;51.728;8.748;2023-04-30T12:21:32;101018.59;;;21.31;39.88
34925;BME280;21130;51.728;8.748;2023-04-30T12:24:00;101012.13;;;21.88;38.07
34925;BME280;21130;51.728;8.748;2023-04-30T12:26:33;101015.00;;;21.50;38.10
34925;BME280;21130;51.728;8.748;2023-04-30T12:29:02;101015.44;;;21.57;39.03
34925;BME280;21130;51.728;8.748;2023-04-30T12:31:31;101001.31;;;21.38;39.44
34925;BME280;21130;51.728;8.748;2023-04-30T12:34:02;101009.13;;;21.98;37.91
34925;BME280;21130;51.728;8.748;2023-04-30T12:36:30;101002.75;;;22.06;38.32
34925;BME280;21130;51.728;8.748;2023-04-30T12:39:09;101001.81;;;22.11;37.47
34925;BME280;21130;51.728;8.748;2023-04-30T12:41:38;101005.56;;;22.06;38.13
34925;BME280;21130;51.728;8.748;2023-04-30T12:44:16;101007.34;;;22.02;38.55
34925;BME280;21130;51.728;8.748;2023-04-30T12:46:43;101002.97;;;22.10;38.43
34925;BME280;21130;51.728;8.748;2023-04-30T12:49:10;100995.59;;;22.41;37.77
34925;BME280;21130;51.728;8.748;2023-04-30T12:51:37;100991.22;;;22.49;36.57